Time;durP1;ratioP1;P1;durP2;ratioP2;P2;SDS_P1;SDS_P2;PMS_P1;PMS_P2;Temp;Humidity;BMP_temperature;BMP_pressure;BME280_temperature;BME280_humidity;BME280_pressure;Samples;Min_cycle;Max_cycle;Signal;HPM_P1;HPM_P2
2021/06/06 00:00:23;;;;;;;30.80;25.47;;;16.50;99.90;;;;;;5028588;28;20517;-83
2021/06/06 00:02:49;;;;;;;30.50;23.23;;;16.40;99.90;;;;;;5035666;28;20454;-82
2021/06/06 00:05:18;;;;;;;31.77;22.57;;;16.40;99.90;;;;;;5031824;28;20445;-82
2021/06/06 00:07:44;;;;;;;26.50;21.67;;;16.30;99.90;;;;;;5033467;28;20440;-82
2021/06/06 00:10:13;;;;;;;27.90;22.30;;;16.30;99.90;;;;;;5018951;28;20466;-82
2021/06/06 00:12:39;;;;;;;32.40;22.90;;;16.30;99.90;;;;;;5042824;28;20985;-82
2021/06/06 00:15:10;;;;;;;23.87;20.53;;;16.30;99.90;;;;;;5025903;28;21008;-82
2021/06/06 00:17:41;;;;;;;29.77;21.83;;;16.40;99.90;;;;;;5026576;28;20516;-82
2021/06/06 00:20:11;;;;;;;30.70;24.83;;;16.30;99.90;;;;;;5031156;28;20513;-82
2021/06/06 00:22:38;;;;;;;30.40;23.03;;;16.30;99.90;;;;;;5035244;28;20527;-82
2021/06/06 00:25:09;;;;;;;27.00;22.97;;;16.30;99.90;;;;;;5021643;28;20440;-83
2021/06/06 00:27:35;;;;;;;24.73;21.20;;;16.20;99.90;;;;;;5046624;28;20450;-82
2021/06/06 00:30:05;;;;;;;25.23;20.57;;;16.30;99.90;;;;;;5010802;28;20577;-82
2021/06/06 00:32:35;;;;;;;29.20;22.93;;;16.30;99.90;;;;;;5018206;28;20945;-82
2021/06/06 00:35:04;;;;;;;25.87;21.10;;;16.40;99.90;;;;;;5033176;28;20812;-82
2021/06/06 00:37:32;;;;;;;25.03;19.67;;;16.40;99.90;;;;;;5030926;28;20465;-82
2021/06/06 00:40:04;;;;;;;29.30;22.23;;;16.40;99.90;;;;;;4980950;28;20427;-82
2021/06/06 00:42:30;;;;;;;26.50;21.87;;;16.30;99.90;;;;;;5034190;28;20905;-82
2021/06/06 00:45:05;;;;;;;25.47;21.13;;;16.40;99.90;;;;;;5016903;28;20462;-82
2021/06/06 00:47:32;;;;;;;25.70;21.27;;;16.50;99.90;;;;;;5033838;28;20455;-83
2021/06/06 00:50:07;;;;;;;26.73;23.83;;;16.50;99.90;;;;;;5014934;28;20440;-82
2021/06/06 00:52:38;;;;;;;25.60;21.43;;;16.50;99.90;;;;;;5033610;28;20486;-82
2021/06/06 00:55:08;;;;;;;25.83;23.03;;;16.60;99.90;;;;;;5014572;28;20495;-83
2021/06/06 00:57:36;;;;;;;25.70;20.13;;;16.60;99.90;;;;;;5015173;28;20440;-83
2021/06/06 01:00:08;;;;;;;25.17;19.37;;;16.60;99.90;;;;;;5016855;28;20517;-82
2021/06/06 01:02:42;;;;;;;27.40;21.80;;;16.70;99.90;;;;;;5027695;28;20437;-82
2021/06/06 01:05:18;;;;;;;27.40;21.13;;;16.60;99.90;;;;;;5033504;28;20507;-82
2021/06/06 01:07:44;;;;;;;31.40;24.77;;;16.70;99.90;;;;;;5015329;28;20976;-83
2021/06/06 01:10:12;;;;;;;35.50;25.67;;;16.60;99.90;;;;;;5022773;28;20427;-82
2021/06/06 01:12:46;;;;;;;32.70;24.37;;;16.60;99.90;;;;;;5016910;28;20478;-83
2021/06/06 01:15:33;;;;;;;31.47;23.07;;;16.60;99.90;;;;;;5012727;28;20415;-82
2021/06/06 01:18:06;;;;;;;28.83;22.20;;;16.50;99.90;;;;;;5032975;28;20448;-82
2021/06/06 01:21:00;;;;;;;31.40;24.40;;;16.50;99.90;;;;;;5016894;28;20480;-82
2021/06/06 01:23:49;;;;;;;27.33;21.23;;;16.40;99.90;;;;;;4997519;28;20936;-82
2021/06/06 01:26:26;;;;;;;33.47;21.50;;;16.50;99.90;;;;;;5020695;28;20441;-82
2021/06/06 01:29:09;;;;;;;25.70;18.83;;;16.50;99.90;;;;;;5013134;28;20435;-82
2021/06/06 01:31:40;;;;;;;22.77;19.13;;;16.50;99.90;;;;;;5002252;28;20476;-83
2021/06/06 01:34:10;;;;;;;24.37;19.67;;;16.50;99.90;;;;;;5016685;28;20438;-82
2021/06/06 01:36:51;;;;;;;23.70;17.80;;;16.50;99.90;;;;;;5013357;28;20438;-82
2021/06/06 01:39:22;;;;;;;22.13;18.30;;;16.40;99.90;;;;;;5033371;28;20430;-82
2021/06/06 01:41:56;;;;;;;25.27;18.50;;;16.50;99.90;;;;;;5000501;28;20581;-82
2021/06/06 01:44:27;;;;;;;26.10;18.53;;;16.40;99.90;;;;;;5033781;28;20432;-82
2021/06/06 01:47:07;;;;;;;25.43;19.30;;;16.50;99.90;;;;;;5031660;28;20792;-82
2021/06/06 01:49:52;;;;;;;29.10;20.07;;;16.50;99.90;;;;;;5039867;28;20475;-83
2021/06/06 01:52:26;;;;;;;27.90;20.53;;;16.50;99.90;;;;;;5031908;28;20887;-83
2021/06/06 01:54:54;;;;;;;24.50;19.33;;;16.40;99.90;;;;;;5003692;28;20528;-83
2021/06/06 01:57:24;;;;;;;23.83;18.83;;;16.50;99.90;;;;;;5016495;28;20435;-82
2021/06/06 01:59:58;;;;;;;25.23;19.10;;;16.50;99.90;;;;;;5031743;28;20481;-82
2021/06/06 02:02:27;;;;;;;24.37;20.63;;;16.40;99.90;;;;;;5032404;28;20431;-82
2021/06/06 02:04:53;;;;;;;28.57;20.60;;;16.40;99.90;;;;;;5035188;28;20443;-82
2021/06/06 02:07:31;;;;;;;31.33;22.57;;;16.40;99.90;;;;;;5030364;28;20459;-82
2021/06/06 02:10:20;;;;;;;25.57;19.53;;;16.40;99.90;;;;;;5022812;28;20475;-82
2021/06/06 02:12:54;;;;;;;27.63;21.07;;;16.30;99.90;;;;;;4999090;28;20883;-82
2021/06/06 02:15:28;;;;;;;27.00;21.27;;;16.30;99.90;;;;;;5018094;28;20452;-83
2021/06/06 02:18:08;;;;;;;24.50;19.90;;;16.20;99.90;;;;;;5017954;28;20443;-82
2021/06/06 02:20:41;;;;;;;25.73;20.77;;;16.20;99.90;;;;;;5015531;28;20489;-82
2021/06/06 02:23:08;;;;;;;27.73;21.47;;;16.10;99.90;;;;;;5036802;28;20527;-82
2021/06/06 02:25:37;;;;;;;31.07;21.30;;;16.00;99.90;;;;;;5015882;28;20448;-82
2021/06/06 02:28:46;;;;;;;25.70;20.20;;;16.00;99.90;;;;;;4999665;28;20446;-82
2021/06/06 02:31:54;;;;;;;23.43;19.40;;;16.00;99.90;;;;;;4997105;28;20986;-82
2021/06/06 02:34:46;;;;;;;24.97;18.97;;;16.00;99.90;;;;;;4999458;28;20438;-82
2021/06/06 02:37:18;;;;;;;23.63;19.47;;;16.00;99.90;;;;;;5037775;28;20462;-82
2021/06/06 02:39:53;;;;;;;25.93;21.07;;;16.00;99.90;;;;;;5035243;28;20421;-82
2021/06/06 02:42:25;;;;;;;26.10;20.30;;;16.00;99.90;;;;;;5026512;28;20457;-82
2021/06/06 02:45:01;;;;;;;26.50;21.67;;;16.00;99.90;;;;;;5036167;28;20431;-82
2021/06/06 02:47:38;;;;;;;26.13;20.50;;;16.00;99.90;;;;;;5051494;28;20580;-82
2021/06/06 02:50:20;;;;;;;26.47;19.90;;;16.00;99.90;;;;;;5035724;28;20463;-82
2021/06/06 02:52:56;;;;;;;30.03;20.67;;;16.00;99.90;;;;;;5039182;28;20895;-82
2021/06/06 02:55:33;;;;;;;28.77;20.83;;;15.90;99.90;;;;;;5019285;28;20521;-82
2021/06/06 02:58:27;;;;;;;29.70;20.93;;;15.90;99.90;;;;;;5024565;28;20442;-82
2021/06/06 03:01:02;;;;;;;24.73;19.30;;;15.90;99.90;;;;;;5017661;28;20445;-82
2021/06/06 03:03:32;;;;;;;24.30;20.50;;;16.00;99.90;;;;;;5029275;28;20430;-83
2021/06/06 03:06:17;;;;;;;24.57;20.90;;;16.00;99.90;;;;;;5035200;28;20829;-82
2021/06/06 03:08:48;;;;;;;29.73;21.30;;;15.90;99.90;;;;;;5028682;28;20957;-82
2021/06/06 03:11:16;;;;;;;27.10;20.50;;;16.00;99.90;;;;;;5060869;28;20817;-82
2021/06/06 03:13:50;;;;;;;24.97;20.87;;;16.00;99.90;;;;;;5041853;28;20481;-82
2021/06/06 03:16:22;;;;;;;29.00;21.43;;;16.00;99.90;;;;;;5040000;28;20825;-82
2021/06/06 03:18:57;;;;;;;26.23;20.70;;;16.00;99.90;;;;;;5027687;28;20427;-83
2021/06/06 03:21:31;;;;;;;28.10;21.97;;;16.00;99.90;;;;;;5024849;28;20509;-82
2021/06/06 03:24:04;;;;;;;27.87;21.60;;;15.90;99.90;;;;;;5032016;28;20459;-82
2021/06/06 03:26:36;;;;;;;27.10;22.47;;;15.80;99.90;;;;;;5015075;28;20797;-82
2021/06/06 03:29:09;;;;;;;29.57;23.70;;;15.80;99.90;;;;;;5041978;28;20821;-82
2021/06/06 03:31:47;;;;;;;29.40;22.60;;;15.80;99.90;;;;;;5017877;28;20469;-82
2021/06/06 03:34:15;;;;;;;28.47;23.93;;;15.80;99.90;;;;;;4998431;28;20873;-82
2021/06/06 03:36:48;;;;;;;31.60;24.20;;;15.80;99.90;;;;;;4998483;28;20435;-82
2021/06/06 03:39:35;;;;;;;35.43;25.40;;;15.90;99.90;;;;;;4994677;28;20453;-82
2021/06/06 03:42:04;;;;;;;33.57;26.03;;;15.90;99.90;;;;;;5025940;28;20479;-82
2021/06/06 03:44:35;;;;;;;34.13;25.20;;;15.90;99.90;;;;;;5030909;28;20814;-82
2021/06/06 03:47:04;;;;;;;29.90;24.70;;;15.90;99.90;;;;;;5002579;28;20431;-82
2021/06/06 03:49:35;;;;;;;35.20;25.53;;;15.90;99.90;;;;;;5030774;28;20435;-81
2021/06/06 03:52:06;;;;;;;31.80;25.80;;;16.00;99.90;;;;;;5015159;28;20551;-81
2021/06/06 03:54:33;;;;;;;31.60;25.20;;;16.00;99.90;;;;;;5018176;28;20435;-82
2021/06/06 03:57:01;;;;;;;37.70;26.37;;;16.10;99.90;;;;;;5034713;28;20427;-82
2021/06/06 03:59:30;;;;;;;30.40;24.90;;;16.00;99.90;;;;;;5035395;28;20512;-82
2021/06/06 04:01:57;;;;;;;31.00;23.97;;;16.00;99.90;;;;;;5012717;28;20440;-82
2021/06/06 04:04:28;;;;;;;31.53;25.67;;;16.00;99.90;;;;;;5037072;28;20562;-80
2021/06/06 04:06:57;;;;;;;32.93;26.60;;;15.90;99.90;;;;;;5030966;28;20420;-80
2021/06/06 04:09:26;;;;;;;32.40;26.20;;;16.00;99.90;;;;;;5033552;28;20452;-80
2021/06/06 04:11:52;;;;;;;42.33;28.57;;;16.00;99.90;;;;;;5033976;28;20464;-80
2021/06/06 04:14:21;;;;;;;36.37;27.30;;;16.00;99.90;;;;;;5034438;28;20469;-80
2021/06/06 04:16:59;;;;;;;40.97;28.47;;;16.00;99.90;;;;;;5032972;28;20454;-80
2021/06/06 04:19:28;;;;;;;37.70;27.13;;;16.10;99.90;;;;;;5034302;28;20914;-80
2021/06/06 04:21:54;;;;;;;34.00;27.60;;;16.10;99.90;;;;;;5032922;28;20493;-80
2021/06/06 04:24:22;;;;;;;35.53;27.97;;;16.10;99.90;;;;;;5029583;28;20447;-80
2021/06/06 04:26:54;;;;;;;42.23;31.87;;;16.10;99.90;;;;;;5032108;28;21057;-80
2021/06/06 04:29:21;;;;;;;48.83;32.40;;;16.10;99.90;;;;;;4988440;28;21074;-80
2021/06/06 04:31:51;;;;;;;49.57;34.77;;;16.10;99.90;;;;;;5050846;28;20777;-80
2021/06/06 04:34:22;;;;;;;46.90;32.97;;;16.00;99.90;;;;;;5037399;28;20446;-80
2021/06/06 04:36:51;;;;;;;52.53;33.80;;;16.00;99.90;;;;;;5052282;28;20428;-81
2021/06/06 04:39:20;;;;;;;48.60;34.53;;;15.90;99.90;;;;;;5050690;28;20516;-80
2021/06/06 04:41:49;;;;;;;57.97;37.40;;;15.90;99.90;;;;;;5054663;28;20532;-80
2021/06/06 04:44:16;;;;;;;57.93;38.30;;;15.90;99.90;;;;;;5026910;28;20430;-80
2021/06/06 04:46:50;;;;;;;62.30;38.77;;;15.90;99.90;;;;;;5020249;28;20892;-80
2021/06/06 04:49:21;;;;;;;53.53;38.63;;;16.00;99.90;;;;;;5056304;28;20433;-80
2021/06/06 04:51:47;;;;;;;63.10;39.13;;;16.00;99.90;;;;;;5017056;28;20981;-80
2021/06/06 04:54:18;;;;;;;59.97;38.40;;;16.00;99.90;;;;;;5052241;28;20757;-80
2021/06/06 04:56:47;;;;;;;71.43;41.43;;;16.00;99.90;;;;;;5034807;28;20704;-80
2021/06/06 04:59:24;;;;;;;57.57;35.60;;;16.00;99.90;;;;;;5048144;28;20507;-80
2021/06/06 05:01:51;;;;;;;49.23;33.03;;;16.00;99.90;;;;;;5032884;28;20445;-80
2021/06/06 05:04:20;;;;;;;52.90;32.90;;;16.00;99.90;;;;;;5036162;28;20430;-80
2021/06/06 05:06:50;;;;;;;43.73;31.77;;;15.90;99.90;;;;;;5033088;28;20981;-81
2021/06/06 05:09:22;;;;;;;49.57;34.00;;;15.90;99.90;;;;;;5054598;28;20440;-80
2021/06/06 05:12:02;;;;;;;53.00;32.77;;;15.80;99.90;;;;;;5035559;28;20465;-80
2021/06/06 05:14:32;;;;;;;48.97;31.93;;;15.90;99.90;;;;;;5043883;28;20475;-80
2021/06/06 05:16:59;;;;;;;45.60;30.00;;;15.90;99.90;;;;;;5036613;28;20418;-82
2021/06/06 05:19:32;;;;;;;45.00;30.37;;;16.00;99.90;;;;;;5010048;28;20425;-82
2021/06/06 05:22:01;;;;;;;46.77;30.30;;;16.00;99.90;;;;;;5032854;28;20444;-83
2021/06/06 05:24:29;;;;;;;45.60;31.33;;;16.00;99.90;;;;;;5052618;28;20432;-80
2021/06/06 05:26:57;;;;;;;47.90;31.53;;;15.90;99.90;;;;;;5052476;28;20439;-80
2021/06/06 05:29:25;;;;;;;50.30;31.23;;;15.80;99.90;;;;;;5046033;28;20744;-80
2021/06/06 05:31:54;;;;;;;44.87;29.20;;;15.80;99.90;;;;;;5041141;28;20754;-79
2021/06/06 05:34:20;;;;;;;54.50;33.43;;;15.80;99.90;;;;;;5041874;28;20803;-80
2021/06/06 05:36:48;;;;;;;51.57;32.47;;;15.80;99.90;;;;;;5039511;28;20432;-80
2021/06/06 05:39:17;;;;;;;50.03;32.30;;;15.70;99.90;;;;;;5044222;28;20430;-80
2021/06/06 05:41:45;;;;;;;48.10;32.80;;;15.80;99.90;;;;;;5046189;28;20418;-80
2021/06/06 05:44:14;;;;;;;50.40;34.43;;;15.90;99.90;;;;;;5057349;28;20418;-80
2021/06/06 05:46:40;;;;;;;48.53;32.77;;;16.00;99.90;;;;;;5057160;28;20461;-79
2021/06/06 05:49:06;;;;;;;43.60;30.20;;;16.00;99.90;;;;;;5039119;28;20517;-79
2021/06/06 05:51:32;;;;;;;46.50;32.17;;;16.10;99.90;;;;;;5043786;28;20443;-79
2021/06/06 05:54:07;;;;;;;45.47;32.20;;;16.10;99.90;;;;;;5039816;28;20962;-80
2021/06/06 05:56:36;;;;;;;45.70;30.73;;;16.20;99.90;;;;;;5035730;28;20429;-80
2021/06/06 05:59:02;;;;;;;45.73;31.57;;;16.20;99.90;;;;;;5059273;28;20881;-80
2021/06/06 06:01:33;;;;;;;50.37;30.63;;;16.10;99.90;;;;;;5054210;28;20483;-80
2021/06/06 06:04:02;;;;;;;45.93;31.27;;;16.20;99.90;;;;;;5061881;28;20418;-80
2021/06/06 06:06:28;;;;;;;48.73;32.23;;;16.10;99.90;;;;;;5023899;28;20426;-80
2021/06/06 06:08:59;;;;;;;52.17;32.47;;;16.10;99.90;;;;;;5062034;28;20464;-80
2021/06/06 06:11:30;;;;;;;48.43;31.27;;;16.20;99.90;;;;;;5041237;28;20427;-81
2021/06/06 06:13:57;;;;;;;43.80;30.37;;;16.20;99.90;;;;;;5046734;28;20473;-80
2021/06/06 06:16:32;;;;;;;44.47;29.37;;;16.20;99.90;;;;;;5054343;28;20442;-80
2021/06/06 06:19:01;;;;;;;42.93;28.70;;;16.20;99.90;;;;;;5039732;28;20427;-80
2021/06/06 06:21:29;;;;;;;41.33;28.80;;;16.30;99.90;;;;;;5046654;28;20459;-80
2021/06/06 06:23:55;;;;;;;47.63;30.10;;;16.30;99.90;;;;;;5040433;28;20426;-80
2021/06/06 06:26:27;;;;;;;44.10;28.83;;;16.40;99.90;;;;;;5068835;28;20443;-80
2021/06/06 06:29:20;;;;;;;41.33;27.73;;;16.40;99.90;;;;;;5004384;28;20445;-80
2021/06/06 06:32:07;;;;;;;40.73;27.07;;;16.50;99.90;;;;;;5031871;28;20487;-80
2021/06/06 06:34:42;;;;;;;44.20;27.53;;;16.50;99.90;;;;;;5012195;28;20472;-80
2021/06/06 06:37:12;;;;;;;39.40;27.67;;;16.60;99.90;;;;;;5032300;28;20432;-80
2021/06/06 06:39:38;;;;;;;40.03;27.40;;;16.60;99.90;;;;;;5040108;28;20419;-80
2021/06/06 06:42:07;;;;;;;42.80;27.90;;;16.70;99.90;;;;;;5032030;28;20559;-80
2021/06/06 06:44:37;;;;;;;34.60;26.00;;;16.70;99.90;;;;;;5031236;28;20495;-80
2021/06/06 06:47:14;;;;;;;36.13;26.80;;;16.70;99.90;;;;;;5017089;28;20842;-80
2021/06/06 06:49:43;;;;;;;39.60;27.60;;;16.70;99.90;;;;;;5032344;28;20420;-80
2021/06/06 06:52:10;;;;;;;38.40;27.80;;;16.70;99.90;;;;;;5011448;28;20554;-80
2021/06/06 06:54:38;;;;;;;42.93;30.53;;;16.70;99.90;;;;;;5030422;28;20431;-82
2021/06/06 06:57:04;;;;;;;47.43;29.97;;;16.70;99.90;;;;;;5010985;28;20425;-80
2021/06/06 06:59:31;;;;;;;45.10;31.67;;;16.70;99.90;;;;;;5022715;28;20450;-80
2021/06/06 07:01:58;;;;;;;49.40;31.83;;;16.60;99.90;;;;;;5040756;28;20451;-79
2021/06/06 07:04:25;;;;;;;60.00;34.63;;;16.60;99.90;;;;;;5033748;28;20509;-80
2021/06/06 07:06:53;;;;;;;51.37;33.00;;;16.60;99.90;;;;;;5029876;28;20430;-80
2021/06/06 07:09:20;;;;;;;47.77;33.70;;;16.70;99.90;;;;;;5033005;28;20470;-79
2021/06/06 07:11:46;;;;;;;50.80;33.03;;;16.60;99.90;;;;;;5029851;28;20459;-82
2021/06/06 07:14:14;;;;;;;48.87;32.33;;;16.60;99.90;;;;;;5030532;28;20452;-80
2021/06/06 07:16:43;;;;;;;51.70;34.53;;;16.50;99.90;;;;;;5029426;28;20427;-81
2021/06/06 07:19:09;;;;;;;50.00;31.67;;;16.50;99.90;;;;;;5028485;28;20454;-83
2021/06/06 07:21:35;;;;;;;48.80;32.37;;;16.50;99.90;;;;;;5030432;28;20765;-80
2021/06/06 07:24:07;;;;;;;53.60;35.40;;;16.50;99.90;;;;;;5019062;28;20442;-81
2021/06/06 07:26:48;;;;;;;63.13;35.57;;;16.50;99.90;;;;;;5019199;28;20500;-81
2021/06/06 07:29:17;;;;;;;56.20;34.90;;;16.40;99.90;;;;;;5033786;28;20455;-81
2021/06/06 07:31:48;;;;;;;54.97;35.23;;;16.40;99.90;;;;;;5057012;28;20460;-81
2021/06/06 07:34:16;;;;;;;55.33;33.77;;;16.50;99.90;;;;;;5053719;28;20438;-81
2021/06/06 07:36:43;;;;;;;60.63;33.83;;;16.40;99.90;;;;;;5054093;28;20473;-81
2021/06/06 07:39:10;;;;;;;52.97;32.97;;;16.50;99.90;;;;;;5036450;28;20444;-81
2021/06/06 07:41:36;;;;;;;56.63;33.27;;;16.50;99.90;;;;;;5055005;28;20437;-81
2021/06/06 07:44:02;;;;;;;50.43;31.97;;;16.50;99.90;;;;;;5055583;28;20454;-81
2021/06/06 07:46:29;;;;;;;57.00;35.53;;;16.60;99.90;;;;;;5064249;28;20452;-81
2021/06/06 07:48:58;;;;;;;54.73;35.50;;;16.60;99.90;;;;;;5036004;28;20431;-81
2021/06/06 07:51:24;;;;;;;56.53;37.00;;;16.70;99.90;;;;;;5043196;28;20444;-81
2021/06/06 07:53:55;;;;;;;60.63;35.67;;;16.70;99.90;;;;;;5066492;28;20473;-81
2021/06/06 07:56:22;;;;;;;56.97;35.70;;;16.80;99.90;;;;;;5053177;28;20433;-81
2021/06/06 07:58:51;;;;;;;61.57;34.73;;;16.80;99.90;;;;;;5056708;28;20418;-81
2021/06/06 08:01:20;;;;;;;51.40;34.73;;;16.80;99.90;;;;;;5046720;28;20580;-81
2021/06/06 08:03:49;;;;;;;53.30;34.60;;;16.90;99.90;;;;;;5054249;28;20920;-81
2021/06/06 08:06:17;;;;;;;56.23;34.63;;;17.00;99.90;;;;;;5054832;28;20437;-81
2021/06/06 08:08:43;;;;;;;50.57;34.77;;;17.00;99.90;;;;;;5072137;28;20868;-81
2021/06/06 08:11:12;;;;;;;51.87;34.03;;;17.00;99.90;;;;;;5050110;28;20459;-83
2021/06/06 08:13:45;;;;;;;51.93;32.53;;;17.00;99.90;;;;;;5051179;28;20526;-82
2021/06/06 08:16:11;;;;;;;52.87;34.43;;;17.10;99.90;;;;;;5038285;28;20523;-81
2021/06/06 08:18:43;;;;;;;57.40;33.17;;;17.10;99.90;;;;;;5058715;28;20429;-81
2021/06/06 08:21:14;;;;;;;42.10;29.63;;;17.10;99.90;;;;;;5055097;28;20438;-81
2021/06/06 08:23:41;;;;;;;45.70;31.07;;;17.10;99.90;;;;;;5050618;28;20434;-81
2021/06/06 08:26:08;;;;;;;42.37;30.17;;;17.10;99.90;;;;;;5063876;28;20462;-81
2021/06/06 08:28:36;;;;;;;41.13;30.00;;;17.10;99.90;;;;;;5049801;28;20890;-82
2021/06/06 08:31:10;;;;;;;42.17;30.13;;;17.00;99.90;;;;;;5054229;28;20450;-82
2021/06/06 08:33:40;;;;;;;36.87;28.17;;;17.10;99.90;;;;;;5054913;28;20569;-81
2021/06/06 08:36:41;;;;;;;40.20;30.27;;;17.10;99.90;;;;;;5053059;28;20826;-81
2021/06/06 08:39:20;;;;;;;39.97;27.47;;;17.10;99.90;;;;;;5057435;28;20426;-82
2021/06/06 08:42:11;;;;;;;37.60;27.27;;;17.10;99.90;;;;;;5037661;28;20997;-81
2021/06/06 08:44:55;;;;;;;44.50;30.17;;;17.10;99.90;;;;;;5061104;28;20430;-82
2021/06/06 08:47:26;;;;;;;47.87;31.17;;;17.10;99.90;;;;;;5042970;28;20571;-81
2021/06/06 08:50:16;;;;;;;49.43;34.23;;;17.00;99.90;;;;;;5064975;28;20449;-82
2021/06/06 08:53:04;;;;;;;55.93;37.83;;;17.00;99.90;;;;;;5057207;28;20486;-81
2021/06/06 08:56:09;;;;;;;65.90;40.53;;;17.00;99.90;;;;;;5066129;28;20428;-82
2021/06/06 08:58:54;;;;;;;67.93;41.07;;;17.10;99.90;;;;;;5049422;28;20422;-81
2021/06/06 09:01:51;;;;;;;62.60;43.13;;;17.20;99.90;;;;;;5055756;28;20430;-81
2021/06/06 09:04:25;;;;;;;62.97;43.37;;;17.20;99.90;;;;;;5041392;28;20441;-81
2021/06/06 09:06:55;;;;;;;59.50;39.40;;;17.20;99.90;;;;;;5039439;28;20831;-82
2021/06/06 09:09:29;;;;;;;58.43;37.97;;;17.30;99.90;;;;;;5055505;28;20435;-82
2021/06/06 09:12:09;;;;;;;59.43;39.73;;;17.30;99.90;;;;;;5051446;28;20444;-81
2021/06/06 09:14:41;;;;;;;53.93;36.23;;;17.40;99.90;;;;;;5064701;28;20438;-82
2021/06/06 09:17:11;;;;;;;49.57;32.67;;;17.50;99.90;;;;;;5058330;28;20630;-82
2021/06/06 09:19:49;;;;;;;52.00;34.53;;;17.50;99.90;;;;;;5066180;28;20473;-82
2021/06/06 09:22:44;;;;;;;57.10;39.17;;;17.50;99.90;;;;;;5036397;28;20434;-82
2021/06/06 09:25:23;;;;;;;62.60;41.10;;;17.50;99.90;;;;;;5048315;28;20420;-81
2021/06/06 09:28:18;;;;;;;60.90;40.30;;;17.60;99.90;;;;;;5064691;28;20426;-81
2021/06/06 09:30:44;;;;;;;57.27;39.57;;;17.70;99.90;;;;;;5041941;28;20495;-81
2021/06/06 09:33:34;;;;;;;60.17;42.60;;;17.80;99.90;;;;;;5053732;28;20480;-81
2021/06/06 09:36:25;;;;;;;55.77;39.17;;;17.80;99.90;;;;;;5063653;28;20423;-81
2021/06/06 09:39:02;;;;;;;50.83;34.57;;;17.90;99.90;;;;;;5068090;28;20764;-81
2021/06/06 09:41:41;;;;;;;48.20;34.90;;;18.00;99.90;;;;;;5057197;28;20976;-81
2021/06/06 09:44:16;;;;;;;49.77;33.83;;;18.00;99.90;;;;;;5055649;28;20909;-81
2021/06/06 09:47:00;;;;;;;47.43;33.83;;;18.00;99.90;;;;;;5066177;28;20419;-81
2021/06/06 09:49:30;;;;;;;42.00;29.00;;;18.00;99.90;;;;;;5055703;28;20464;-81
2021/06/06 09:52:21;;;;;;;55.27;33.20;;;17.80;99.90;;;;;;5068503;28;20471;-82
2021/06/06 09:54:55;;;;;;;45.93;30.50;;;17.70;99.90;;;;;;5045763;28;20824;-81
2021/06/06 09:57:32;;;;;;;50.50;33.20;;;17.70;99.90;;;;;;5061047;28;20426;-81
2021/06/06 10:00:18;;;;;;;49.30;32.43;;;17.70;99.90;;;;;;5061771;28;20419;-81
2021/06/06 10:02:52;;;;;;;57.63;33.60;;;17.60;99.90;;;;;;5055798;28;20466;-81
2021/06/06 10:05:38;;;;;;;52.00;34.60;;;17.60;99.90;;;;;;5059448;28;20767;-81
2021/06/06 10:08:07;;;;;;;53.70;32.30;;;17.60;99.90;;;;;;5062192;28;20498;-81
2021/06/06 10:10:48;;;;;;;50.23;31.27;;;17.60;99.90;;;;;;5053683;28;20777;-81
2021/06/06 10:13:23;;;;;;;46.40;31.30;;;17.60;99.90;;;;;;5047801;28;20553;-80
2021/06/06 10:15:57;;;;;;;40.97;30.13;;;17.60;99.90;;;;;;5055819;28;20451;-80
2021/06/06 10:18:31;;;;;;;46.37;29.67;;;17.70;99.90;;;;;;5061993;28;20431;-80
2021/06/06 10:21:24;;;;;;;46.57;31.17;;;17.70;99.90;;;;;;5045338;28;20446;-80
2021/06/06 10:23:58;;;;;;;42.67;28.83;;;17.70;99.90;;;;;;5055377;28;20449;-81
2021/06/06 10:26:39;;;;;;;46.70;31.33;;;17.70;99.90;;;;;;5060303;28;20487;-80
2021/06/06 10:29:40;;;;;;;42.10;28.77;;;17.60;99.90;;;;;;5055511;28;20431;-81
2021/06/06 10:32:24;;;;;;;44.87;29.47;;;17.60;99.90;;;;;;5026181;28;20567;-81
2021/06/06 10:35:19;;;;;;;44.03;29.10;;;17.70;99.90;;;;;;5029188;28;20658;-80
2021/06/06 10:37:54;;;;;;;39.93;26.40;;;17.70;99.90;;;;;;5015491;28;20436;-80
2021/06/06 10:40:42;;;;;;;42.10;28.07;;;17.80;99.90;;;;;;5025637;28;20441;-80
2021/06/06 10:43:32;;;;;;;41.17;25.43;;;17.80;99.90;;;;;;5030731;28;20433;-80
2021/06/06 10:46:25;;;;;;;45.17;29.27;;;17.90;99.90;;;;;;5024980;28;20438;-80
2021/06/06 10:49:22;;;;;;;40.97;28.43;;;17.90;99.90;;;;;;5029549;28;20428;-81
2021/06/06 10:52:04;;;;;;;44.93;27.90;;;17.90;99.90;;;;;;5027799;28;20434;-80
2021/06/06 10:54:45;;;;;;;35.73;25.10;;;17.90;99.90;;;;;;5024791;28;20430;-80
2021/06/06 10:57:28;;;;;;;41.23;26.53;;;18.00;99.90;;;;;;5025135;28;20433;-81
2021/06/06 11:00:00;;;;;;;39.90;26.30;;;17.90;99.90;;;;;;5027816;28;20431;-81
2021/06/06 11:02:34;;;;;;;35.63;25.80;;;17.90;99.90;;;;;;5025208;28;20437;-80
2021/06/06 11:05:23;;;;;;;36.83;25.00;;;18.00;99.90;;;;;;5030944;28;20823;-80
2021/06/06 11:07:52;;;;;;;35.03;25.40;;;17.90;99.90;;;;;;5023814;28;20460;-80
2021/06/06 11:10:20;;;;;;;39.97;25.60;;;17.90;99.90;;;;;;5030909;28;20506;-80
2021/06/06 11:12:51;;;;;;;40.03;32.77;;;17.90;99.90;;;;;;5029216;28;20474;-81
2021/06/06 11:15:32;;;;;;;40.70;32.00;;;18.00;99.90;;;;;;5023816;28;20184;-81
2021/06/06 11:18:16;;;;;;;41.20;25.90;;;18.10;99.90;;;;;;5012150;28;20450;-81
2021/06/06 11:21:04;;;;;;;30.57;22.97;;;18.20;99.90;;;;;;5023457;28;20452;-81
2021/06/06 11:23:45;;;;;;;35.30;26.27;;;18.20;99.90;;;;;;4998506;28;20587;-81
2021/06/06 11:26:19;;;;;;;35.07;25.10;;;18.10;99.90;;;;;;5030845;28;20465;-81
2021/06/06 11:28:46;;;;;;;32.67;23.93;;;18.10;99.90;;;;;;5031146;28;20439;-81
2021/06/06 11:31:34;;;;;;;29.50;23.70;;;18.10;99.90;;;;;;5040591;28;20520;-81
2021/06/06 11:34:08;;;;;;;39.20;24.07;;;18.10;99.90;;;;;;5025193;28;20583;-80
2021/06/06 11:36:43;;;;;;;28.10;23.20;;;18.00;99.90;;;;;;5036867;28;20501;-81
2021/06/06 11:39:16;;;;;;;32.17;23.10;;;18.00;99.90;;;;;;5037517;28;20563;-80
2021/06/06 11:41:45;;;;;;;31.73;22.70;;;18.00;99.90;;;;;;5038636;28;20544;-80
2021/06/06 11:44:20;;;;;;;31.60;22.37;;;18.10;99.90;;;;;;5046050;28;20438;-81
2021/06/06 11:47:10;;;;;;;29.03;22.60;;;18.10;99.90;;;;;;5005565;28;20429;-81
2021/06/06 11:50:12;;;;;;;33.50;24.23;;;18.00;99.90;;;;;;5029969;28;21037;-81
2021/06/06 11:52:46;;;;;;;32.43;23.57;;;18.00;99.90;;;;;;5033487;28;20853;-82
2021/06/06 11:55:24;;;;;;;27.97;22.57;;;18.00;99.90;;;;;;5023007;28;20446;-82
2021/06/06 11:58:10;;;;;;;27.57;21.63;;;18.10;99.90;;;;;;5035175;28;20433;-81
2021/06/06 12:01:04;;;;;;;27.70;22.53;;;18.10;99.90;;;;;;5015293;28;20496;-81
2021/06/06 12:03:35;;;;;;;32.20;22.57;;;18.10;99.90;;;;;;5036520;28;20919;-81
2021/06/06 12:06:13;;;;;;;29.87;23.63;;;18.20;99.90;;;;;;5036411;28;20461;-82
2021/06/06 12:08:53;;;;;;;30.20;24.10;;;18.20;99.90;;;;;;5043759;28;20562;-82
2021/06/06 12:11:19;;;;;;;30.57;23.70;;;18.30;99.90;;;;;;5025726;28;20430;-83
2021/06/06 12:13:50;;;;;;;32.07;22.87;;;18.30;99.90;;;;;;5017714;28;20484;-83
2021/06/06 12:16:19;;;;;;;27.80;22.00;;;18.40;99.90;;;;;;5028264;28;20472;-83
2021/06/06 12:19:16;;;;;;;30.93;22.00;;;18.30;99.90;;;;;;5021583;28;20515;-83
2021/06/06 12:21:49;;;;;;;27.70;22.50;;;18.30;99.90;;;;;;5050386;28;20433;-83
2021/06/06 12:24:26;;;;;;;32.57;23.50;;;18.30;99.90;;;;;;5037435;28;20464;-83
2021/06/06 12:27:04;;;;;;;30.60;23.70;;;18.30;99.90;;;;;;5033356;28;20456;-83
2021/06/06 12:29:41;;;;;;;31.93;24.37;;;18.30;99.90;;;;;;5031921;28;20468;-83
2021/06/06 12:32:13;;;;;;;30.00;23.60;;;18.30;99.90;;;;;;5033508;28;20529;-83
2021/06/06 12:34:40;;;;;;;29.53;23.53;;;18.30;99.90;;;;;;5014370;28;20847;-83
2021/06/06 12:37:15;;;;;;;33.43;24.53;;;18.30;99.90;;;;;;5021767;28;20515;-83
2021/06/06 12:39:44;;;;;;;26.70;22.70;;;18.30;99.90;;;;;;5020274;28;20449;-82
2021/06/06 12:42:13;;;;;;;33.63;24.80;;;18.30;99.90;;;;;;5033118;28;20769;-82
2021/06/06 12:44:43;;;;;;;29.07;22.03;;;18.30;99.90;;;;;;5016425;28;20434;-82
2021/06/06 12:47:31;;;;;;;35.73;23.47;;;18.40;99.90;;;;;;5034134;28;20952;-84
2021/06/06 12:50:05;;;;;;;32.00;24.40;;;18.50;99.90;;;;;;5034447;28;20452;-84
2021/06/06 12:52:56;;;;;;;32.40;23.43;;;18.40;99.90;;;;;;5033101;28;20465;-84
2021/06/06 12:55:29;;;;;;;26.43;21.10;;;18.50;99.90;;;;;;5033954;28;20442;-84
2021/06/06 12:58:16;;;;;;;30.67;23.50;;;18.60;99.90;;;;;;5032831;28;20468;-83
2021/06/06 13:00:46;;;;;;;29.40;22.40;;;18.60;99.90;;;;;;5017747;28;20434;-83
2021/06/06 13:03:29;;;;;;;27.93;23.33;;;18.70;99.90;;;;;;5033287;28;20423;-83